createdAt,value
2018-08-13T00:01:07.497Z,99972.32
2018-08-13T00:03:36.573Z,99980.66
2018-08-13T00:06:05.833Z,99976.05
2018-08-13T00:08:34.993Z,99976.05
2018-08-13T00:11:04.244Z,99974.72
2018-08-13T00:13:33.369Z,99978.77
2018-08-13T00:16:02.585Z,99979.98
2018-08-13T00:18:32.058Z,99982.58
2018-08-13T00:21:01.274Z,99983.52
2018-08-13T00:23:30.486Z,99984.45
2018-08-13T00:25:59.509Z,99979.56
2018-08-13T00:28:28.609Z,99978.63
2018-08-13T00:30:57.873Z,99973.91
2018-08-13T00:33:27.100Z,99969.13
2018-08-13T00:35:56.269Z,99962.82
2018-08-13T00:38:25.497Z,99967.88
2018-08-13T00:40:54.470Z,99968.15
2018-08-13T00:43:23.704Z,99966.29
2018-08-13T00:45:52.860Z,99968.66
2018-08-13T00:48:22.049Z,99969.95
2018-08-13T00:50:51.181Z,99965.88
2018-08-13T00:53:20.377Z,99959.30
2018-08-13T00:55:49.549Z,99961.38
2018-08-13T00:58:18.653Z,99964.81
2018-08-13T01:00:47.834Z,99958.36
2018-08-13T01:03:17.094Z,99958.89
2018-08-13T01:05:46.284Z,99952.39
2018-08-13T01:08:15.450Z,99954.20
2018-08-13T01:10:44.632Z,99957.67
2018-08-13T01:13:13.833Z,99951.19
2018-08-13T01:15:43.082Z,99944.97
2018-08-13T01:18:12.259Z,99950.31
2018-08-13T01:20:41.420Z,99944.33
2018-08-13T01:23:10.658Z,99942.10
2018-08-13T01:25:40.074Z,99947.03
2018-08-13T01:28:09.164Z,99945.06
2018-08-13T01:30:38.327Z,99942.36
2018-08-13T01:33:07.696Z,99945.06
2018-08-13T01:35:36.825Z,99946.41
2018-08-13T01:38:06.018Z,99941.26
2018-08-13T01:40:35.245Z,99941.28
2018-08-13T01:43:04.262Z,99938.60
2018-08-13T01:45:33.247Z,99936.89
2018-08-13T01:48:02.921Z,99939.14
2018-08-13T01:50:32.147Z,99938.48
2018-08-13T01:53:01.358Z,99935.95
2018-08-13T01:55:30.538Z,99934.34
2018-08-13T01:58:00.241Z,99937.55
2018-08-13T02:00:29.319Z,99933.70
2018-08-13T02:02:58.513Z,99937.27
2018-08-13T02:05:28.211Z,99935.58
2018-08-13T02:07:57.700Z,99938.98
2018-08-13T02:10:26.719Z,99937.08
2018-08-13T02:12:55.928Z,99940.17
2018-08-13T02:15:25.121Z,99936.73
2018-08-13T02:17:54.344Z,99936.11
2018-08-13T02:20:23.415Z,99934.84
2018-08-13T02:22:52.717Z,99933.67
2018-08-13T02:25:22.009Z,99937.89
2018-08-13T02:27:51.317Z,99932.39
2018-08-13T02:30:20.553Z,99937.23
2018-08-13T02:32:49.728Z,99936.16
2018-08-13T02:35:18.910Z,99937.36
2018-08-13T02:37:48.109Z,99936.42
2018-08-13T02:40:17.304Z,99933.63
2018-08-13T02:42:46.530Z,99933.88
2018-08-13T02:45:15.797Z,99933.16
2018-08-13T02:47:45.133Z,99931.45
2018-08-13T02:50:14.793Z,99933.59
2018-08-13T02:52:43.911Z,99936.86
2018-08-13T02:55:13.304Z,99937.74
2018-08-13T02:57:42.414Z,99935.95
2018-08-13T03:00:12.073Z,99934.72
2018-08-13T03:02:41.509Z,99930.92
2018-08-13T03:05:12.317Z,99933.13
2018-08-13T03:07:41.513Z,99930.14
2018-08-13T03:10:12.469Z,99934.09
2018-08-13T03:12:41.869Z,99931.23
2018-08-13T03:15:13.040Z,99934.44
2018-08-13T03:17:42.293Z,99931.61
2018-08-13T03:20:11.445Z,99927.88
2018-08-13T03:22:40.642Z,99931.51
2018-08-13T03:25:10.626Z,99938.30
2018-08-13T03:27:39.801Z,99941.34
2018-08-13T03:30:11.732Z,99942.91
2018-08-13T03:32:41.441Z,99947.17
2018-08-13T03:35:10.461Z,99955.20
2018-08-13T03:37:39.661Z,99950.41
2018-08-13T03:40:10.450Z,99949.61
2018-08-13T03:42:39.492Z,99948.70
2018-08-13T03:45:09.968Z,99956.27
2018-08-13T03:47:39.073Z,99955.33
2018-08-13T03:50:09.373Z,99962.63
2018-08-13T03:52:38.488Z,99959.84
2018-08-13T03:55:08.984Z,99957.86
2018-08-13T03:57:38.073Z,99958.05
2018-08-13T04:00:10.721Z,99948.59
2018-08-13T04:02:39.888Z,99954.75
2018-08-13T04:05:09.600Z,99958.20
2018-08-13T04:07:39.349Z,99958.20
2018-08-13T04:10:10.653Z,99950.31
2018-08-13T04:12:41.234Z,99957.00
2018-08-13T04:15:11.727Z,99960.05
2018-08-13T04:17:41.325Z,99965.31
2018-08-13T04:20:11.654Z,99968.64
2018-08-13T04:22:40.702Z,99965.23
2018-08-13T04:25:10.639Z,99958.23
2018-08-13T04:27:40.614Z,99952.02
2018-08-13T04:30:11.870Z,99957.09
2018-08-13T04:32:41.030Z,99956.98
2018-08-13T04:35:10.294Z,99952.46
2018-08-13T04:37:39.717Z,99956.53
2018-08-13T04:40:10.741Z,99955.73
2018-08-13T04:42:40.075Z,99952.10
2018-08-13T04:45:09.729Z,99954.98
2018-08-13T04:47:38.673Z,99956.39
2018-08-13T04:50:08.797Z,99959.70
2018-08-13T04:52:38.247Z,99963.71
2018-08-13T04:55:08.657Z,99960.72
2018-08-13T04:57:37.917Z,99958.31
2018-08-13T05:00:07.760Z,99966.41
2018-08-13T05:02:36.940Z,99966.31
2018-08-13T05:05:06.824Z,99964.80
2018-08-13T05:07:35.937Z,99969.16
2018-08-13T05:10:05.622Z,99967.47
2018-08-13T05:12:34.644Z,99952.69
2018-08-13T05:15:04.025Z,99951.62
2018-08-13T05:17:33.045Z,99950.28
2018-08-13T05:20:02.280Z,99951.39
2018-08-13T05:22:31.441Z,99946.93
2018-08-13T05:25:00.637Z,99951.38
2018-08-13T05:27:30.117Z,99952.86
2018-08-13T05:29:59.436Z,99949.98
2018-08-13T05:32:28.574Z,99953.10
2018-08-13T05:34:57.741Z,99953.67
2018-08-13T05:37:26.933Z,99950.67
2018-08-13T05:39:56.136Z,99951.88
2018-08-13T05:42:25.337Z,99947.36
2018-08-13T05:44:54.855Z,99939.00
2018-08-13T05:47:24.032Z,99944.19
2018-08-13T05:49:53.235Z,99943.70
2018-08-13T05:52:22.441Z,99942.16
2018-08-13T05:54:51.628Z,99940.05
2018-08-13T05:57:20.977Z,99931.69
2018-08-13T05:59:50.134Z,99935.71
2018-08-13T06:02:19.364Z,99936.83
2018-08-13T06:04:48.529Z,99932.39
2018-08-13T06:07:17.830Z,99932.91
2018-08-13T06:09:47.074Z,99936.09
2018-08-13T06:12:16.113Z,99936.14
2018-08-13T06:14:45.420Z,99930.27
2018-08-13T06:17:14.623Z,99928.22
2018-08-13T06:19:43.824Z,99932.56
2018-08-13T06:22:13.150Z,99924.05
2018-08-13T06:24:42.605Z,99933.17
2018-08-13T06:27:11.713Z,99932.66
2018-08-13T06:29:40.918Z,99927.55
2018-08-13T06:32:10.109Z,99925.80
2018-08-13T06:34:39.597Z,99930.66
2018-08-13T06:37:08.824Z,99922.53
2018-08-13T06:39:38.046Z,99928.19
2018-08-13T06:42:07.299Z,99929.68
2018-08-13T06:44:36.526Z,99929.08
2018-08-13T06:47:05.825Z,99922.63
2018-08-13T06:49:35.023Z,99922.20
2018-08-13T06:52:04.757Z,99921.22
2018-08-13T06:54:34.022Z,99922.92
2018-08-13T06:57:03.454Z,99922.66
2018-08-13T06:59:32.517Z,99915.11
2018-08-13T07:02:01.562Z,99919.86
2018-08-13T07:04:30.753Z,99917.47
2018-08-13T07:06:59.923Z,99915.70
2018-08-13T07:09:29.134Z,99918.41
2018-08-13T07:11:58.257Z,99915.12
2018-08-13T07:14:27.409Z,99915.97
2018-08-13T07:16:56.678Z,99919.31
2018-08-13T07:19:25.805Z,99922.45
2018-08-13T07:21:54.997Z,99921.14
2018-08-13T07:24:24.486Z,99920.62
2018-08-13T07:26:53.523Z,99919.48
2018-08-13T07:29:22.742Z,99917.70
2018-08-13T07:31:51.937Z,99909.91
2018-08-13T07:34:20.913Z,99916.72
2018-08-13T07:36:50.257Z,99916.91
2018-08-13T07:39:19.547Z,99915.66
2018-08-13T07:41:48.737Z,99909.33
2018-08-13T07:44:17.894Z,99909.92
2018-08-13T07:46:47.114Z,99907.02
2018-08-13T07:49:16.279Z,99902.28
2018-08-13T07:51:45.524Z,99902.98
2018-08-13T07:54:14.700Z,99895.62
2018-08-13T07:56:43.772Z,99895.89
2018-08-13T07:59:13.141Z,99893.72
2018-08-13T08:01:42.329Z,99892.94
2018-08-13T08:04:11.472Z,99889.53
2018-08-13T08:06:40.956Z,99885.19
2018-08-13T08:09:12.200Z,99891.95
2018-08-13T08:11:41.674Z,99888.89
2018-08-13T08:14:10.937Z,99889.08
2018-08-13T08:16:40.366Z,99895.28
2018-08-13T08:19:09.429Z,99894.00
2018-08-13T08:21:38.629Z,99890.41
2018-08-13T08:24:07.744Z,99891.16
2018-08-13T08:26:36.945Z,99881.59
2018-08-13T08:29:07.125Z,99880.95
2018-08-13T08:31:36.140Z,99883.20
2018-08-13T08:34:05.340Z,99877.98
2018-08-13T08:36:34.538Z,99874.56
2018-08-13T08:39:03.969Z,99871.70
2018-08-13T08:41:33.045Z,99872.73
2018-08-13T08:44:02.080Z,99870.21
2018-08-13T08:46:31.220Z,99866.95
2018-08-13T08:49:00.705Z,99861.70
2018-08-13T08:51:29.713Z,99864.89
2018-08-13T08:53:58.941Z,99855.61
2018-08-13T08:56:28.121Z,99852.51
2018-08-13T08:58:57.354Z,99854.25
2018-08-13T09:01:26.531Z,99851.09
2018-08-13T09:03:55.718Z,99854.30
2018-08-13T09:06:25.118Z,99859.86
2018-08-13T09:08:54.225Z,99855.13
2018-08-13T09:11:23.424Z,99849.35
2018-08-13T09:13:52.626Z,99854.23
2018-08-13T09:16:21.814Z,99846.30
2018-08-13T09:19:01.746Z,99838.52
2018-08-13T09:21:33.409Z,99840.61
2018-08-13T09:24:14.066Z,99842.75
2018-08-13T09:26:54.004Z,99843.67
2018-08-13T09:29:33.920Z,99846.38
2018-08-13T09:32:29.873Z,99848.23
2018-08-13T09:35:31.959Z,99849.09
2018-08-13T09:38:01.258Z,99841.84
2018-08-13T09:40:31.643Z,99839.97
2018-08-13T09:43:00.596Z,99840.87
2018-08-13T09:45:29.589Z,99831.28
2018-08-13T09:47:58.875Z,99845.70
2018-08-13T09:50:27.911Z,99832.89
2018-08-13T09:52:57.222Z,99821.91
2018-08-13T09:55:26.083Z,99833.67
2018-08-13T09:57:55.288Z,99821.88
2018-08-13T10:01:32.688Z,99813.91
2018-08-13T10:04:01.765Z,99820.24
2018-08-13T10:06:30.798Z,99815.89
2018-08-13T10:09:00.020Z,99818.58
2018-08-13T10:11:29.175Z,99805.44
2018-08-13T10:13:58.497Z,99801.04
2018-08-13T10:16:27.768Z,99805.40
2018-08-13T10:18:57.037Z,99798.14
2018-08-13T10:21:26.086Z,99804.41
2018-08-13T10:23:55.255Z,99793.98
2018-08-13T10:26:24.572Z,99784.41
2018-08-13T10:28:53.749Z,99782.50
2018-08-13T10:31:23.002Z,99786.05
2018-08-13T10:33:52.154Z,99783.86
2018-08-13T10:36:21.342Z,99783.59
2018-08-13T10:38:50.373Z,99775.91
2018-08-13T10:41:19.606Z,99777.81
2018-08-13T10:43:48.734Z,99779.67
2018-08-13T10:46:18.015Z,99769.46
2018-08-13T10:48:47.133Z,99772.89
2018-08-13T10:51:16.321Z,99774.01
2018-08-13T10:53:46.463Z,99768.05
2018-08-13T10:56:15.689Z,99765.35
2018-08-13T10:58:44.853Z,99763.34
2018-08-13T11:01:14.333Z,99766.42
2018-08-13T11:03:43.679Z,99764.47
2018-08-13T11:06:13.061Z,99764.70
2018-08-13T11:08:42.269Z,99763.11
2018-08-13T11:11:11.645Z,99764.25
2018-08-13T11:13:40.751Z,99767.44
2018-08-13T11:16:09.980Z,99755.13
2018-08-13T11:18:39.137Z,99747.85
2018-08-13T11:21:08.344Z,99749.28
2018-08-13T11:23:37.421Z,99744.44
2018-08-13T11:26:06.536Z,99740.34
2018-08-13T11:28:35.629Z,99730.66
2018-08-13T11:31:04.933Z,99729.24
2018-08-13T11:33:34.232Z,99730.53
2018-08-13T11:36:03.498Z,99732.77
2018-08-13T11:38:32.625Z,99731.97
2018-08-13T11:41:01.887Z,99722.14
2018-08-13T11:43:31.023Z,99723.29
2018-08-13T11:46:00.342Z,99714.06
2018-08-13T11:48:29.539Z,99719.78
2018-08-13T11:50:58.726Z,99716.96
2018-08-13T11:53:27.989Z,99722.88
2018-08-13T11:55:57.121Z,99723.79
2018-08-13T11:58:26.310Z,99721.09
2018-08-13T12:00:55.573Z,99713.30
2018-08-13T12:03:24.717Z,99714.39
2018-08-13T12:05:53.977Z,99711.76
2018-08-13T12:08:23.240Z,99707.55
2018-08-13T12:10:52.410Z,99707.75
2018-08-13T12:13:21.515Z,99699.28
2018-08-13T12:15:50.709Z,99697.14
2018-08-13T12:18:20.045Z,99691.56
2018-08-13T12:20:49.215Z,99696.89
2018-08-13T12:23:18.406Z,99688.26
2018-08-13T12:25:47.603Z,99694.93
2018-08-13T12:28:16.806Z,99684.12
2018-08-13T12:30:46.125Z,99684.58
2018-08-13T12:33:15.308Z,99682.96
2018-08-13T12:35:44.503Z,99675.56
2018-08-13T12:38:13.709Z,99667.92
2018-08-13T12:40:42.881Z,99672.55
2018-08-13T12:43:12.293Z,99666.86
2018-08-13T12:45:41.405Z,99659.94
2018-08-13T12:48:10.604Z,99665.27
2018-08-13T12:50:39.682Z,99668.16
2018-08-13T12:53:09.011Z,99656.80
2018-08-13T12:55:38.215Z,99661.64
2018-08-13T12:58:07.535Z,99658.27
2018-08-13T13:00:36.906Z,99655.12
2018-08-13T13:03:06.210Z,99656.27
2018-08-13T13:05:35.317Z,99653.73
2018-08-13T13:08:04.785Z,99653.51
2018-08-13T13:10:34.089Z,99653.02
2018-08-13T13:13:03.305Z,99658.11
2018-08-13T13:15:32.495Z,99652.77
2018-08-13T13:18:01.714Z,99651.75
2018-08-13T13:20:30.688Z,99647.16
2018-08-13T13:22:59.873Z,99649.91
2018-08-13T13:25:29.105Z,99653.41
2018-08-13T13:27:58.269Z,99639.92
2018-08-13T13:30:27.267Z,99638.05
2018-08-13T13:32:56.505Z,99636.58
2018-08-13T13:35:25.694Z,99633.23
2018-08-13T13:37:54.904Z,99627.95
2018-08-13T13:40:24.226Z,99624.46
2018-08-13T13:42:53.572Z,99632.76
2018-08-13T13:45:22.892Z,99629.58
2018-08-13T13:47:52.167Z,99625.42
2018-08-13T13:50:21.370Z,99625.58
2018-08-13T13:52:50.560Z,99618.22
2018-08-13T13:55:19.781Z,99618.28
2018-08-13T13:57:48.950Z,99618.82
2018-08-13T14:00:20.646Z,99610.82
2018-08-13T14:02:50.727Z,99610.19
2018-08-13T14:05:19.933Z,99608.59
2018-08-13T14:07:49.189Z,99607.20
2018-08-13T14:10:21.341Z,99599.09
2018-08-13T14:12:50.882Z,99602.13
2018-08-13T14:15:21.137Z,99605.81
2018-08-13T14:17:50.474Z,99602.72
2018-08-13T14:20:19.689Z,99603.44
2018-08-13T14:22:48.921Z,99599.13
2018-08-13T14:25:18.121Z,99601.09
2018-08-13T14:27:47.317Z,99604.48
2018-08-13T14:30:19.489Z,99603.00
2018-08-13T14:32:48.996Z,99593.60
2018-08-13T14:35:19.022Z,99592.50
2018-08-13T14:37:48.233Z,99583.72
2018-08-13T14:40:17.404Z,99584.33
2018-08-13T14:42:52.068Z,99586.30
2018-08-13T14:45:20.802Z,99591.22
2018-08-13T14:47:50.899Z,99587.33
2018-08-13T14:50:19.691Z,99582.95
2018-08-13T14:52:49.077Z,99592.36
2018-08-13T14:55:20.154Z,99588.61
2018-08-13T14:57:48.829Z,99591.56
2018-08-13T15:00:21.465Z,99592.77
2018-08-13T15:02:50.681Z,99595.34
2018-08-13T15:05:19.947Z,99596.84
2018-08-13T15:07:49.397Z,99589.59
2018-08-13T15:10:19.981Z,99589.70
2018-08-13T15:12:49.226Z,99593.16
2018-08-13T15:15:23.169Z,99587.52
2018-08-13T15:17:57.480Z,99589.98
2018-08-13T15:20:32.822Z,99581.98
2018-08-13T15:23:07.669Z,99582.95
2018-08-13T15:25:41.527Z,99574.19
2018-08-13T15:28:16.695Z,99570.61
2018-08-13T15:30:50.293Z,99573.38
2018-08-13T15:33:23.603Z,99570.89
2018-08-13T15:35:52.910Z,99567.13
2018-08-13T15:38:24.251Z,99566.42
2018-08-13T15:40:57.126Z,99562.42
2018-08-13T15:43:29.765Z,99561.73
2018-08-13T15:46:02.232Z,99558.39
2018-08-13T15:48:34.538Z,99558.77
2018-08-13T15:51:06.928Z,99559.36
2018-08-13T15:53:39.983Z,99561.33
2018-08-13T15:56:11.802Z,99556.38
2018-08-13T15:58:44.801Z,99560.44
2018-08-13T16:01:13.881Z,99563.89
2018-08-13T16:03:43.085Z,99561.71
2018-08-13T16:06:12.279Z,99561.95
2018-08-13T16:08:41.518Z,99565.97
2018-08-13T16:11:10.814Z,99562.53
2018-08-13T16:13:40.082Z,99563.11
2018-08-13T16:16:09.329Z,99565.06
2018-08-13T16:18:38.376Z,99564.12
2018-08-13T16:21:07.366Z,99564.81
2018-08-13T16:23:36.602Z,99567.17
2018-08-13T16:26:05.766Z,99562.91
2018-08-13T16:28:34.829Z,99565.55
2018-08-13T16:31:04.169Z,99560.66
2018-08-13T16:33:33.453Z,99555.31
2018-08-13T16:36:02.691Z,99563.58
2018-08-13T16:38:31.858Z,99559.00
2018-08-13T16:41:01.338Z,99557.75
2018-08-13T16:43:30.352Z,99558.03
2018-08-13T16:45:59.558Z,99557.42
2018-08-13T16:48:28.805Z,99557.18
2018-08-13T16:50:57.946Z,99555.09
2018-08-13T16:53:27.259Z,99553.36
2018-08-13T16:55:56.578Z,99556.30
2018-08-13T16:58:26.028Z,99556.50
2018-08-13T17:00:55.111Z,99559.16
2018-08-13T17:03:24.239Z,99561.59
2018-08-13T17:05:53.592Z,99564.59
2018-08-13T17:08:23.019Z,99566.92
2018-08-13T17:10:52.194Z,99566.23
2018-08-13T17:13:21.576Z,99563.97
2018-08-13T17:15:50.758Z,99572.41
2018-08-13T17:18:19.985Z,99573.55
2018-08-13T17:20:49.200Z,99577.34
2018-08-13T17:23:18.389Z,99582.70
2018-08-13T17:25:47.603Z,99587.05
2018-08-13T17:28:16.772Z,99591.15
2018-08-13T17:30:45.985Z,99595.35
2018-08-13T17:33:15.137Z,99593.61
2018-08-13T17:35:44.383Z,99587.16
2018-08-13T17:38:13.613Z,99599.23
2018-08-13T17:40:42.873Z,99595.71
2018-08-13T17:43:12.483Z,99595.64
2018-08-13T17:45:41.568Z,99594.12
2018-08-13T17:48:11.152Z,99596.05
2018-08-13T17:50:40.413Z,99600.64
2018-08-13T17:53:10.053Z,99599.68
2018-08-13T17:55:39.270Z,99597.75
2018-08-13T17:58:08.668Z,99602.66
2018-08-13T18:00:37.879Z,99597.44
2018-08-13T18:03:07.337Z,99598.08
2018-08-13T18:05:36.594Z,99602.48
2018-08-13T18:08:05.829Z,99606.40
2018-08-13T18:10:35.506Z,99600.48
2018-08-13T18:13:06.097Z,99600.52
2018-08-13T18:15:35.593Z,99604.08
2018-08-13T18:18:05.031Z,99605.17
2018-08-13T18:20:34.250Z,99613.12
2018-08-13T18:23:03.437Z,99610.89
2018-08-13T18:25:32.597Z,99599.36
2018-08-13T18:28:01.829Z,99601.64
2018-08-13T18:30:30.918Z,99605.37
2018-08-13T18:33:00.111Z,99605.48
2018-08-13T18:35:29.358Z,99608.38
2018-08-13T18:37:58.711Z,99608.76
2018-08-13T18:40:32.943Z,99608.84
2018-08-13T18:43:02.268Z,99609.33
2018-08-13T18:45:31.405Z,99619.34
2018-08-13T18:48:01.155Z,99625.05
2018-08-13T18:50:30.228Z,99622.62
2018-08-13T18:52:59.470Z,99621.31
2018-08-13T18:55:28.480Z,99619.45
2018-08-13T18:57:57.320Z,99627.47
2018-08-13T19:00:28.569Z,99632.55
2018-08-13T19:02:58.410Z,99630.55
2018-08-13T19:05:27.436Z,99630.37
2018-08-13T19:07:56.298Z,99631.73
2018-08-13T19:10:25.087Z,99635.86
2018-08-13T19:12:54.025Z,99634.91
2018-08-13T19:15:24.760Z,99629.63
2018-08-13T19:17:54.038Z,99631.80
2018-08-13T19:20:23.043Z,99632.09
2018-08-13T19:22:51.909Z,99630.20
2018-08-13T19:25:23.166Z,99639.19
2018-08-13T19:27:51.897Z,99634.78
2018-08-13T19:30:21.682Z,99631.80
2018-08-13T19:32:50.952Z,99635.00
2018-08-13T19:35:19.722Z,99636.43
2018-08-13T19:37:48.877Z,99632.90
2018-08-13T19:40:19.896Z,99640.25
2018-08-13T19:42:49.546Z,99643.87
2018-08-13T19:45:19.206Z,99642.80
2018-08-13T19:47:48.463Z,99638.25
2018-08-13T19:50:17.449Z,99633.96
2018-08-13T19:52:47.309Z,99640.81
2018-08-13T19:55:16.489Z,99642.20
2018-08-13T19:57:45.214Z,99646.56
2018-08-13T20:00:21.002Z,99650.39
2018-08-13T20:02:50.310Z,99644.72
2018-08-13T20:05:20.405Z,99646.62
2018-08-13T20:07:49.433Z,99646.38
2018-08-13T20:10:18.218Z,99654.30
2018-08-13T20:12:47.377Z,99663.25
2018-08-13T20:15:16.140Z,99663.55
2018-08-13T20:17:45.159Z,99667.89
2018-08-13T20:20:16.171Z,99671.36
2018-08-13T20:22:45.806Z,99661.30
2018-08-13T20:25:16.698Z,99667.85
2018-08-13T20:27:45.935Z,99669.21
2018-08-13T20:30:18.504Z,99667.89
2018-08-13T20:32:49.224Z,99671.41
2018-08-13T20:35:18.722Z,99674.38
2018-08-13T20:37:47.555Z,99670.88
2018-08-13T20:40:17.965Z,99669.52
2018-08-13T20:42:47.383Z,99670.58
2018-08-13T20:45:17.916Z,99671.34
2018-08-13T20:47:47.185Z,99666.13
2018-08-13T20:50:19.178Z,99669.16
2018-08-13T20:52:48.832Z,99667.47
2018-08-13T20:55:20.267Z,99677.80
2018-08-13T20:57:49.493Z,99672.11
2018-08-13T21:00:20.885Z,99667.77
2018-08-13T21:02:49.597Z,99669.45
2018-08-13T21:05:18.623Z,99670.34
2018-08-13T21:07:48.400Z,99668.69
2018-08-13T21:10:18.387Z,99668.69
2018-08-13T21:12:47.129Z,99667.27
2018-08-13T21:15:16.746Z,99671.39
2018-08-13T21:17:45.613Z,99668.44
2018-08-13T21:20:21.560Z,99661.69
2018-08-13T21:22:50.364Z,99668.50
2018-08-13T21:25:19.120Z,99670.41
2018-08-13T21:27:48.001Z,99665.55
2018-08-13T21:30:16.772Z,99670.43
2018-08-13T21:32:45.788Z,99674.26
2018-08-13T21:35:23.165Z,99668.03
2018-08-13T21:37:52.066Z,99670.73
2018-08-13T21:40:20.891Z,99669.94
2018-08-13T21:42:50.357Z,99667.20
2018-08-13T21:45:19.150Z,99675.38
2018-08-13T21:47:47.916Z,99671.02
2018-08-13T21:50:18.955Z,99668.84
2018-08-13T21:52:48.571Z,99671.84
2018-08-13T21:55:17.346Z,99673.75
2018-08-13T21:57:46.095Z,99674.56
2018-08-13T22:00:24.778Z,99672.11
2018-08-13T22:02:53.865Z,99673.75
2018-08-13T22:05:22.641Z,99672.67
2018-08-13T22:07:51.405Z,99662.61
2018-08-13T22:10:20.091Z,99669.69
2018-08-13T22:12:48.877Z,99665.34
2018-08-13T22:15:25.808Z,99669.14
2018-08-13T22:17:55.720Z,99671.00
2018-08-13T22:20:25.148Z,99679.67
2018-08-13T22:22:54.080Z,99666.94
2018-08-13T22:25:29.645Z,99669.37
2018-08-13T22:27:58.777Z,99677.01
2018-08-13T22:30:27.911Z,99674.84
2018-08-13T22:32:56.633Z,99674.02
2018-08-13T22:35:25.341Z,99675.36
2018-08-13T22:37:54.185Z,99678.86
2018-08-13T22:40:22.904Z,99672.61
2018-08-13T22:42:51.646Z,99670.16
2018-08-13T22:45:21.829Z,99670.98
2018-08-13T22:47:50.607Z,99670.73
2018-08-13T22:50:19.351Z,99668.83
2018-08-13T22:52:48.095Z,99660.19
2018-08-13T22:55:18.185Z,99659.36
2018-08-13T22:57:47.063Z,99662.03
2018-08-13T23:00:16.953Z,99664.46
2018-08-13T23:02:46.616Z,99665.28
2018-08-13T23:05:19.532Z,99661.48
2018-08-13T23:07:48.317Z,99663.10
2018-08-13T23:10:18.393Z,99656.83
2018-08-13T23:12:48.309Z,99648.95
2018-08-13T23:15:17.613Z,99650.59
2018-08-13T23:17:46.926Z,99647.34
2018-08-13T23:20:23.987Z,99652.48
2018-08-13T23:23:06.826Z,99655.73
2018-08-13T23:25:36.710Z,99652.44
2018-08-13T23:28:07.733Z,99644.85
2018-08-13T23:30:36.495Z,99637.78
2018-08-13T23:33:05.709Z,99637.77
2018-08-13T23:35:34.404Z,99635.84
2018-08-13T23:38:03.128Z,99632.59
2018-08-13T23:40:31.823Z,99639.91
2018-08-13T23:43:00.588Z,99637.69
2018-08-13T23:45:31.105Z,99639.31
2018-08-13T23:48:00.430Z,99636.12
2018-08-13T23:50:29.313Z,99640.70
2018-08-13T23:53:00.275Z,99633.59
2018-08-13T23:55:32.878Z,99634.44
2018-08-13T23:58:01.996Z,99630.45
